Time;durP1;ratioP1;P1;durP2;ratioP2;P2;SDS_P1;SDS_P2;PMS_P1;PMS_P2;Temp;Humidity;BMP_temperature;BMP_pressure;BME280_temperature;BME280_humidity;BME280_pressure;Samples;Min_cycle;Max_cycle;Signal;HPM_P1;HPM_P2
2022/09/08 00:02:20;;;;;;;0.30;0.30;;;;;;;;;;5052555;28;20055;-78
2022/09/08 00:04:46;;;;;;;0.13;0.13;;;;;;;;;;5053836;28;20020;-77
2022/09/08 00:07:11;;;;;;;0.20;0.20;;;;;;;;;;5053583;28;20029;-78
2022/09/08 00:09:37;;;;;;;0.20;0.20;;;;;;;;;;5035743;28;20068;-84
2022/09/08 00:12:03;;;;;;;0.20;0.20;;;;;;;;;;5053803;28;20028;-84
2022/09/08 00:14:29;;;;;;;0.20;0.20;;;;;;;;;;5035347;28;20372;-82
2022/09/08 00:16:55;;;;;;;0.30;0.30;;;;;;;;;;5036073;28;20033;-84
2022/09/08 00:19:20;;;;;;;30.00;1.48;;;;;;;;;;5053807;28;20520;-83
2022/09/08 00:21:46;;;;;;;0.30;0.30;;;;;;;;;;5035882;28;20082;-84
2022/09/08 00:24:12;;;;;;;0.20;0.20;;;;;;;;;;5053351;28;20393;-79
2022/09/08 00:26:37;;;;;;;1.65;1.55;;;;;;;;;;5035571;28;20068;-79
2022/09/08 00:29:03;;;;;;;0.30;0.30;;;;;;;;;;5052864;28;20029;-78
2022/09/08 00:31:28;;;;;;;0.20;0.20;;;;;;;;;;5053370;28;20032;-78
2022/09/08 00:33:54;;;;;;;0.30;0.30;;;;;;;;;;5035537;28;20029;-80
2022/09/08 00:36:19;;;;;;;0.30;0.30;;;;;;;;;;5053206;28;20048;-78
2022/09/08 00:38:50;;;;;;;0.20;0.20;;;;;;;;;;5019085;28;20072;-79
2022/09/08 00:41:16;;;;;;;0.20;0.20;;;;;;;;;;5035239;28;20476;-78
2022/09/08 00:43:42;;;;;;;0.55;0.55;;;;;;;;;;5052262;28;20048;-78
2022/09/08 00:46:08;;;;;;;0.20;0.20;;;;;;;;;;5052653;28;20025;-79
2022/09/08 00:48:39;;;;;;;0.20;0.20;;;;;;;;;;5054792;28;20033;-78
2022/09/08 00:51:04;;;;;;;0.40;0.40;;;;;;;;;;5039202;28;20037;-78
2022/09/08 00:53:31;;;;;;;0.22;0.22;;;;;;;;;;5039193;28;20036;-79
2022/09/08 00:55:56;;;;;;;0.22;0.22;;;;;;;;;;5022861;28;20411;-79
2022/09/08 00:58:22;;;;;;;0.20;0.20;;;;;;;;;;5039114;28;20033;-79
2022/09/08 01:00:48;;;;;;;0.20;0.20;;;;;;;;;;5039355;28;20025;-79
2022/09/08 01:03:17;;;;;;;0.20;0.20;;;;;;;;;;5039219;28;20037;-79
2022/09/08 01:05:52;;;;;;;0.20;0.20;;;;;;;;;;5056851;28;20336;-80
2022/09/08 01:14:08;;;;;;;0.20;0.20;;;;;;;;;;5057011;28;20029;-80
2022/09/08 01:16:40;;;;;;;0.22;0.22;;;;;;;;;;5056801;28;20021;-76
2022/09/08 01:19:14;;;;;;;0.20;0.20;;;;;;;;;;5056513;28;20047;-78
2022/09/08 01:21:45;;;;;;;0.20;0.20;;;;;;;;;;5056946;28;20029;-85
2022/09/08 01:24:13;;;;;;;0.20;0.20;;;;;;;;;;5056834;28;20480;-80
2022/09/08 01:26:46;;;;;;;0.20;0.20;;;;;;;;;;5038775;28;20025;-83
2022/09/08 01:29:13;;;;;;;50.92;5.20;;;;;;;;;;5038791;28;20059;-83
2022/09/08 01:31:40;;;;;;;0.20;0.20;;;;;;;;;;5056102;28;20043;-84
2022/09/08 01:34:06;;;;;;;0.20;0.20;;;;;;;;;;5038541;28;20150;-84
2022/09/08 01:36:31;;;;;;;0.22;0.22;;;;;;;;;;5056552;28;20021;-82
2022/09/08 01:38:57;;;;;;;0.28;0.28;;;;;;;;;;5056634;28;20037;-82
2022/09/08 01:41:22;;;;;;;0.38;0.38;;;;;;;;;;5056433;28;20415;-82
2022/09/08 01:43:48;;;;;;;0.20;0.20;;;;;;;;;;5056324;28;20483;-82
2022/09/08 01:46:13;;;;;;;0.20;0.20;;;;;;;;;;5055963;28;20037;-81
2022/09/08 01:48:39;;;;;;;0.20;0.20;;;;;;;;;;5038232;28;20041;-83
2022/09/08 01:51:06;;;;;;;7.05;4.03;;;;;;;;;;5056183;28;20025;-82
2022/09/08 01:53:31;;;;;;;0.20;0.20;;;;;;;;;;5056264;28;20029;-84
2022/09/08 01:55:57;;;;;;;0.20;0.20;;;;;;;;;;5056081;28;20034;-82
2022/09/08 01:58:23;;;;;;;0.30;0.30;;;;;;;;;;5038109;28;20033;-81
2022/09/08 02:00:48;;;;;;;0.35;0.35;;;;;;;;;;5055874;28;20029;-81
2022/09/08 02:03:14;;;;;;;0.20;0.20;;;;;;;;;;5037941;28;20021;-84
2022/09/08 02:05:40;;;;;;;0.20;0.20;;;;;;;;;;5056219;28;20027;-81
2022/09/08 02:08:06;;;;;;;0.20;0.20;;;;;;;;;;5055750;28;20116;-81
2022/09/08 02:10:32;;;;;;;0.45;0.45;;;;;;;;;;5037698;28;20048;-84
2022/09/08 02:12:58;;;;;;;0.30;0.30;;;;;;;;;;5022152;28;20057;-83
2022/09/08 02:15:24;;;;;;;1.23;1.23;;;;;;;;;;5039604;28;20057;-77
2022/09/08 02:17:49;;;;;;;0.20;0.20;;;;;;;;;;5055435;28;20472;-77
2022/09/08 02:20:15;;;;;;;4.20;1.85;;;;;;;;;;5055911;28;20028;-79
2022/09/08 02:22:41;;;;;;;0.20;0.20;;;;;;;;;;5055497;28;20067;-79
2022/09/08 02:25:07;;;;;;;1.85;1.60;;;;;;;;;;5055241;28;20021;-80
2022/09/08 02:27:32;;;;;;;0.20;0.20;;;;;;;;;;5037682;28;20029;-79
2022/09/08 02:29:57;;;;;;;0.30;0.30;;;;;;;;;;5055445;28;20041;-80
2022/09/08 02:32:24;;;;;;;0.20;0.20;;;;;;;;;;5037633;28;20039;-79
2022/09/08 02:34:52;;;;;;;0.20;0.20;;;;;;;;;;5055240;28;20021;-79
2022/09/08 02:37:17;;;;;;;0.30;0.30;;;;;;;;;;5055533;28;20107;-79
2022/09/08 02:39:44;;;;;;;0.28;0.28;;;;;;;;;;5055315;28;20059;-79
2022/09/08 02:42:10;;;;;;;0.40;0.40;;;;;;;;;;5055240;28;20029;-79
2022/09/08 02:44:36;;;;;;;0.20;0.20;;;;;;;;;;5054913;28;20045;-80
2022/09/08 02:47:01;;;;;;;0.20;0.20;;;;;;;;;;5054708;28;20372;-77
2022/09/08 02:49:27;;;;;;;0.15;0.15;;;;;;;;;;5037173;28;20040;-78
2022/09/08 02:51:52;;;;;;;3.53;3.33;;;;;;;;;;5037512;28;20060;-77
2022/09/08 02:54:18;;;;;;;0.20;0.20;;;;;;;;;;5055041;28;20068;-76
2022/09/08 02:56:43;;;;;;;1.20;0.60;;;;;;;;;;5054845;28;20021;-77
2022/09/08 02:59:09;;;;;;;0.30;0.30;;;;;;;;;;5054760;28;20033;-78
2022/09/08 03:01:35;;;;;;;0.20;0.20;;;;;;;;;;5036199;28;20480;-79
2022/09/08 03:04:01;;;;;;;0.25;0.25;;;;;;;;;;5050022;28;20057;-78
2022/09/08 03:06:26;;;;;;;0.20;0.20;;;;;;;;;;5033177;28;20024;-78
2022/09/08 03:08:52;;;;;;;0.20;0.20;;;;;;;;;;5032989;28;20052;-77
2022/09/08 03:11:17;;;;;;;0.20;0.20;;;;;;;;;;5050276;28;20029;-77
2022/09/08 03:13:43;;;;;;;0.30;0.30;;;;;;;;;;5050495;28;20047;-76
2022/09/08 03:16:09;;;;;;;0.25;0.25;;;;;;;;;;5032567;28;20056;-78
2022/09/08 03:18:34;;;;;;;0.28;0.28;;;;;;;;;;5032507;28;20025;-79
2022/09/08 03:21:02;;;;;;;1.88;1.77;;;;;;;;;;5050929;28;20056;-79
2022/09/08 03:23:28;;;;;;;0.20;0.20;;;;;;;;;;5032244;28;20033;-78
2022/09/08 03:25:54;;;;;;;0.20;0.20;;;;;;;;;;5050404;28;20063;-78
2022/09/08 03:28:20;;;;;;;0.20;0.20;;;;;;;;;;5048493;28;20079;-79
2022/09/08 03:30:46;;;;;;;0.20;0.20;;;;;;;;;;5049754;28;20044;-78
2022/09/08 03:33:11;;;;;;;0.20;0.20;;;;;;;;;;5030628;28;20033;-79
2022/09/08 03:35:37;;;;;;;0.20;0.20;;;;;;;;;;5048247;28;20021;-78
2022/09/08 03:38:03;;;;;;;0.20;0.20;;;;;;;;;;5048037;28;20455;-77
2022/09/08 03:40:28;;;;;;;0.20;0.20;;;;;;;;;;5048024;28;20116;-80
2022/09/08 03:42:54;;;;;;;0.20;0.20;;;;;;;;;;5047303;28;20023;-83
2022/09/08 03:45:19;;;;;;;0.20;0.20;;;;;;;;;;5030444;28;20143;-82
2022/09/08 03:47:45;;;;;;;0.20;0.20;;;;;;;;;;5049597;28;20585;-83
2022/09/08 03:50:11;;;;;;;0.20;0.20;;;;;;;;;;5050322;28;20083;-83
2022/09/08 03:52:36;;;;;;;0.20;0.20;;;;;;;;;;5050412;28;20116;-83
2022/09/08 03:55:02;;;;;;;0.20;0.20;;;;;;;;;;5016244;28;20589;-84
2022/09/08 03:57:28;;;;;;;0.20;0.20;;;;;;;;;;5050011;28;20420;-84
2022/09/08 03:59:56;;;;;;;0.20;0.20;;;;;;;;;;5015772;28;20044;-78
2022/09/08 04:02:22;;;;;;;0.10;0.10;;;;;;;;;;5049230;28;20033;-78
2022/09/08 04:04:48;;;;;;;0.20;0.20;;;;;;;;;;5050689;28;20024;-80
2022/09/08 04:07:14;;;;;;;0.20;0.20;;;;;;;;;;5031055;28;20060;-81
2022/09/08 04:09:41;;;;;;;0.22;0.22;;;;;;;;;;5049840;28;20138;-81
2022/09/08 04:12:07;;;;;;;2.33;1.20;;;;;;;;;;5032228;28;20123;-82
2022/09/08 04:14:33;;;;;;;3.15;0.40;;;;;;;;;;5031857;28;20107;-79
2022/09/08 04:16:58;;;;;;;1.10;0.73;;;;;;;;;;5047610;28;20357;-80
2022/09/08 04:19:24;;;;;;;0.30;0.30;;;;;;;;;;5029630;28;20040;-79
2022/09/08 04:21:49;;;;;;;0.20;0.20;;;;;;;;;;5047778;28;20518;-77
2022/09/08 04:24:15;;;;;;;0.25;0.25;;;;;;;;;;5048051;28;20029;-76
2022/09/08 04:26:41;;;;;;;5.18;1.42;;;;;;;;;;5048643;28;20056;-80
2022/09/08 04:29:07;;;;;;;0.40;0.40;;;;;;;;;;5029780;28;20037;-79
2022/09/08 04:31:35;;;;;;;0.20;0.20;;;;;;;;;;5047010;28;20510;-79
2022/09/08 04:34:00;;;;;;;2.00;1.85;;;;;;;;;;5047648;28;20021;-78
2022/09/08 04:36:26;;;;;;;0.45;0.45;;;;;;;;;;5047942;28;20033;-80
2022/09/08 04:38:52;;;;;;;0.20;0.20;;;;;;;;;;5047590;28;20056;-79
2022/09/08 04:41:18;;;;;;;1.67;1.58;;;;;;;;;;5048295;28;20017;-79
2022/09/08 04:43:43;;;;;;;1.67;1.58;;;;;;;;;;5047846;28;20075;-79
2022/09/08 04:46:11;;;;;;;0.38;0.38;;;;;;;;;;5048469;28;20071;-79
2022/09/08 04:48:37;;;;;;;0.20;0.20;;;;;;;;;;5031804;28;20041;-82
2022/09/08 04:51:03;;;;;;;0.20;0.20;;;;;;;;;;5049278;28;20028;-83
2022/09/08 04:53:29;;;;;;;0.85;0.65;;;;;;;;;;5049039;28;20379;-83
2022/09/08 04:55:55;;;;;;;0.20;0.20;;;;;;;;;;5031923;28;20380;-83
2022/09/08 04:58:21;;;;;;;0.22;0.22;;;;;;;;;;5049243;28;20040;-83
2022/09/08 05:00:47;;;;;;;0.20;0.20;;;;;;;;;;5048316;28;20013;-80
2022/09/08 05:03:12;;;;;;;0.20;0.20;;;;;;;;;;5049337;28;20025;-81
2022/09/08 05:05:38;;;;;;;0.30;0.30;;;;;;;;;;5048835;28;20384;-82
2022/09/08 05:08:04;;;;;;;0.20;0.20;;;;;;;;;;5048326;28;20029;-81
2022/09/08 05:10:31;;;;;;;1.38;0.85;;;;;;;;;;5029628;28;20029;-83
2022/09/08 05:12:57;;;;;;;0.57;0.57;;;;;;;;;;5047944;28;20121;-79
2022/09/08 05:15:22;;;;;;;1.67;1.02;;;;;;;;;;5046865;28;20117;-79
2022/09/08 05:17:48;;;;;;;2.28;1.75;;;;;;;;;;5046580;28;20473;-83
2022/09/08 05:20:14;;;;;;;7.60;1.08;;;;;;;;;;5030432;28;20112;-80
2022/09/08 05:22:40;;;;;;;0.28;0.28;;;;;;;;;;5030503;28;20154;-78
2022/09/08 05:25:06;;;;;;;0.28;0.28;;;;;;;;;;5048745;28;20033;-80
2022/09/08 05:27:31;;;;;;;1.08;0.98;;;;;;;;;;5048690;28;20033;-78
2022/09/08 05:29:57;;;;;;;1.75;0.65;;;;;;;;;;5047089;28;20143;-80
2022/09/08 05:32:22;;;;;;;0.20;0.20;;;;;;;;;;5049702;28;20033;-80
2022/09/08 05:34:47;;;;;;;0.30;0.30;;;;;;;;;;5051291;28;20059;-79
2022/09/08 05:37:13;;;;;;;0.25;0.25;;;;;;;;;;5035063;28;20033;-79
2022/09/08 05:39:38;;;;;;;0.30;0.30;;;;;;;;;;5052359;28;20032;-79
2022/09/08 05:42:04;;;;;;;0.20;0.20;;;;;;;;;;5048212;28;20112;-82
2022/09/08 05:44:29;;;;;;;0.50;0.50;;;;;;;;;;5020653;28;20085;-83
2022/09/08 05:46:55;;;;;;;0.32;0.32;;;;;;;;;;5032518;28;20072;-84
2022/09/08 05:49:21;;;;;;;2.35;0.88;;;;;;;;;;5025647;28;20408;-83
2022/09/08 05:51:47;;;;;;;0.82;0.82;;;;;;;;;;5014660;28;20034;-79
2022/09/08 05:54:13;;;;;;;0.20;0.20;;;;;;;;;;5004809;28;20028;-84
2022/09/08 05:56:38;;;;;;;0.20;0.20;;;;;;;;;;5040306;28;20030;-87
2022/09/08 05:59:04;;;;;;;0.20;0.20;;;;;;;;;;5032329;28;20136;-84
2022/09/08 06:01:31;;;;;;;0.20;0.20;;;;;;;;;;5014331;28;20024;-84
2022/09/08 06:03:59;;;;;;;0.85;0.75;;;;;;;;;;5032691;28;20030;-81
2022/09/08 06:06:24;;;;;;;0.30;0.30;;;;;;;;;;5047561;28;20033;-85
2022/09/08 06:08:51;;;;;;;2.75;1.75;;;;;;;;;;5052142;28;20032;-86
2022/09/08 06:11:17;;;;;;;0.20;0.20;;;;;;;;;;5033708;28;20029;-85
2022/09/08 06:13:42;;;;;;;0.57;0.57;;;;;;;;;;5034169;28;20498;-84
2022/09/08 06:16:12;;;;;;;0.30;0.30;;;;;;;;;;5049879;28;20032;-84
2022/09/08 06:18:39;;;;;;;0.40;0.40;;;;;;;;;;5032634;28;20079;-74
2022/09/08 06:21:05;;;;;;;0.20;0.20;;;;;;;;;;5050072;28;20056;-81
2022/09/08 06:23:31;;;;;;;0.20;0.20;;;;;;;;;;5052565;28;20163;-78
2022/09/08 06:25:56;;;;;;;0.22;0.22;;;;;;;;;;5050596;28;20115;-75
2022/09/08 06:28:41;;;;;;;0.20;0.20;;;;;;;;;;5050883;28;20029;-76
2022/09/08 06:31:07;;;;;;;0.30;0.30;;;;;;;;;;5051330;28;20508;-77
2022/09/08 06:33:40;;;;;;;0.50;0.50;;;;;;;;;;5049206;28;20033;-80
2022/09/08 06:36:19;;;;;;;0.30;0.30;;;;;;;;;;5013617;28;20047;-77
2022/09/08 06:38:51;;;;;;;0.20;0.20;;;;;;;;;;5029268;28;20065;-76
2022/09/08 06:41:20;;;;;;;0.38;0.38;;;;;;;;;;4996039;28;20116;-76
2022/09/08 06:43:46;;;;;;;0.50;0.50;;;;;;;;;;5029662;28;20050;-75
2022/09/08 06:46:44;;;;;;;1.85;0.73;;;;;;;;;;5027222;28;20029;-75
2022/09/08 06:49:11;;;;;;;0.20;0.20;;;;;;;;;;5006211;28;20096;-76
2022/09/08 06:51:42;;;;;;;0.20;0.20;;;;;;;;;;5028894;28;20037;-76
2022/09/08 06:54:27;;;;;;;0.50;0.50;;;;;;;;;;5029567;28;20408;-76
2022/09/08 06:56:59;;;;;;;0.45;0.45;;;;;;;;;;5029842;28;20055;-77
2022/09/08 06:59:37;;;;;;;0.30;0.30;;;;;;;;;;5011600;28;20033;-76
2022/09/08 07:02:21;;;;;;;1.03;0.60;;;;;;;;;;5029363;28;20769;-74
2022/09/08 07:05:02;;;;;;;0.93;0.93;;;;;;;;;;5030335;28;20516;-76
2022/09/08 07:07:37;;;;;;;0.28;0.28;;;;;;;;;;5030533;28;20091;-75
2022/09/08 07:10:21;;;;;;;0.30;0.30;;;;;;;;;;4997062;28;20041;-75
2022/09/08 07:12:53;;;;;;;0.20;0.20;;;;;;;;;;5013345;28;20034;-76
2022/09/08 07:15:25;;;;;;;0.63;0.63;;;;;;;;;;5029563;28;20057;-76
2022/09/08 07:18:06;;;;;;;0.20;0.20;;;;;;;;;;5030871;28;20017;-78
2022/09/08 07:20:32;;;;;;;0.20;0.20;;;;;;;;;;5030892;28;20038;-77
2022/09/08 07:23:03;;;;;;;0.30;0.30;;;;;;;;;;5030852;28;20030;-77
2022/09/08 07:25:32;;;;;;;0.20;0.20;;;;;;;;;;5030951;28;20042;-79
2022/09/08 07:28:06;;;;;;;0.20;0.20;;;;;;;;;;5031309;28;20132;-77
2022/09/08 07:30:33;;;;;;;0.30;0.30;;;;;;;;;;4996414;28;20403;-77
2022/09/08 07:33:03;;;;;;;0.20;0.20;;;;;;;;;;5030965;28;20200;-77
2022/09/08 07:35:38;;;;;;;0.45;0.45;;;;;;;;;;5030065;28;20030;-78
2022/09/08 07:38:08;;;;;;;0.22;0.22;;;;;;;;;;5030713;28;20029;-78
2022/09/08 07:40:42;;;;;;;0.40;0.40;;;;;;;;;;5030506;28;20094;-77
2022/09/08 07:43:10;;;;;;;0.30;0.30;;;;;;;;;;5012478;28;20852;-77
2022/09/08 07:45:48;;;;;;;0.30;0.30;;;;;;;;;;5012467;28;20033;-75
2022/09/08 07:48:32;;;;;;;0.25;0.25;;;;;;;;;;5030098;28;20065;-78
2022/09/08 07:51:19;;;;;;;4.65;3.10;;;;;;;;;;5030562;28;20094;-76
2022/09/08 07:53:45;;;;;;;0.30;0.30;;;;;;;;;;5029722;28;20481;-76
2022/09/08 07:56:25;;;;;;;0.20;0.20;;;;;;;;;;5029918;28;20030;-76
2022/09/08 07:59:00;;;;;;;0.30;0.30;;;;;;;;;;5028939;28;20045;-76
2022/09/08 08:01:31;;;;;;;0.20;0.20;;;;;;;;;;5028219;28;20079;-77
2022/09/08 08:04:09;;;;;;;0.30;0.30;;;;;;;;;;5030495;28;20037;-76
2022/09/08 08:06:40;;;;;;;0.20;0.20;;;;;;;;;;5035880;28;20373;-76
2022/09/08 08:09:13;;;;;;;0.20;0.20;;;;;;;;;;5024462;28;20033;-74
2022/09/08 08:11:54;;;;;;;0.22;0.22;;;;;;;;;;5049404;28;20082;-78
2022/09/08 08:14:31;;;;;;;0.20;0.20;;;;;;;;;;5031472;28;20037;-77
2022/09/08 08:17:15;;;;;;;0.30;0.30;;;;;;;;;;5043076;28;20040;-75
2022/09/08 08:19:52;;;;;;;0.22;0.22;;;;;;;;;;5032024;28;20040;-77
2022/09/08 08:22:20;;;;;;;0.30;0.30;;;;;;;;;;5031205;28;20025;-83
2022/09/08 08:25:04;;;;;;;0.28;0.28;;;;;;;;;;5048620;28;20433;-74
2022/09/08 08:27:33;;;;;;;0.57;0.57;;;;;;;;;;5027130;28;20033;-80
2022/09/08 08:30:02;;;;;;;0.22;0.22;;;;;;;;;;5028526;28;20136;-77
2022/09/08 08:32:27;;;;;;;;;;;;;;;;;;5028414;28;20043;-79
2022/09/08 08:34:58;;;;;;;2.23;2.17;;;;;;;;;;5029583;28;20104;-75
2022/09/08 08:37:26;;;;;;;0.20;0.20;;;;;;;;;;5032946;28;20543;-78
2022/09/08 08:39:54;;;;;;;0.20;0.20;;;;;;;;;;5049260;28;20052;-78
2022/09/08 08:42:29;;;;;;;0.30;0.30;;;;;;;;;;5048753;28;20040;-80
2022/09/08 08:44:57;;;;;;;0.35;0.35;;;;;;;;;;5049145;28;20290;-79
2022/09/08 08:47:23;;;;;;;0.35;0.35;;;;;;;;;;5048893;28;20036;-78
2022/09/08 08:49:48;;;;;;;0.20;0.20;;;;;;;;;;5028508;28;20049;-79
2022/09/08 08:52:17;;;;;;;0.20;0.20;;;;;;;;;;5046929;28;20651;-78
2022/09/08 08:54:51;;;;;;;0.38;0.38;;;;;;;;;;5043973;28;20685;-79
2022/09/08 08:57:35;;;;;;;0.30;0.30;;;;;;;;;;5009626;28;20061;-80
2022/09/08 09:00:12;;;;;;;0.50;0.50;;;;;;;;;;5009445;28;20037;-81
2022/09/08 09:02:56;;;;;;;0.28;0.28;;;;;;;;;;5026721;28;20080;-80
2022/09/08 09:05:40;;;;;;;2.15;1.73;;;;;;;;;;5009114;28;20030;-77
2022/09/08 09:08:08;;;;;;;0.50;0.50;;;;;;;;;;5045794;28;20028;-77
2022/09/08 09:10:39;;;;;;;0.73;0.57;;;;;;;;;;5032713;28;20045;-78
2022/09/08 09:13:08;;;;;;;1.65;1.13;;;;;;;;;;5049444;28;20794;-77
2022/09/08 09:15:33;;;;;;;0.30;0.30;;;;;;;;;;5050910;28;20484;-76
2022/09/08 09:18:17;;;;;;;0.47;0.47;;;;;;;;;;5033344;28;20154;-76
2022/09/08 09:20:49;;;;;;;0.20;0.20;;;;;;;;;;5051655;28;20029;-77
2022/09/08 09:23:14;;;;;;;0.30;0.30;;;;;;;;;;5033285;28;20093;-78
2022/09/08 09:25:55;;;;;;;0.30;0.30;;;;;;;;;;5048700;28;20123;-77
2022/09/08 09:28:42;;;;;;;0.32;0.32;;;;;;;;;;5015989;28;20031;-77
2022/09/08 09:31:11;;;;;;;0.40;0.40;;;;;;;;;;5050863;28;20025;-77
2022/09/08 09:33:55;;;;;;;11.13;1.23;;;;;;;;;;5049661;28;20020;-78
2022/09/08 09:36:23;;;;;;;0.30;0.30;;;;;;;;;;5050717;28;20115;-77
2022/09/08 09:39:08;;;;;;;8.25;4.95;;;;;;;;;;5050528;28;20025;-77
2022/09/08 09:41:52;;;;;;;0.32;0.32;;;;;;;;;;5051574;28;20029;-76
2022/09/08 09:44:23;;;;;;;0.30;0.30;;;;;;;;;;5051805;28;20052;-77
2022/09/08 09:47:21;;;;;;;0.40;0.40;;;;;;;;;;5034147;28;20369;-76
2022/09/08 09:50:05;;;;;;;0.30;0.30;;;;;;;;;;5007294;28;20103;-79
2022/09/08 09:52:47;;;;;;;0.38;0.38;;;;;;;;;;5051999;28;20043;-78
2022/09/08 09:55:15;;;;;;;0.32;0.32;;;;;;;;;;5057986;28;20044;-78
2022/09/08 09:58:12;;;;;;;5.90;1.23;;;;;;;;;;5035727;28;20457;-77
2022/09/08 10:00:57;;;;;;;0.30;0.30;;;;;;;;;;5034380;28;20138;-77
2022/09/08 10:03:44;;;;;;;0.30;0.30;;;;;;;;;;5012832;28;20065;-79
2022/09/08 10:06:28;;;;;;;0.93;0.80;;;;;;;;;;5016809;28;20029;-75
2022/09/08 10:08:58;;;;;;;0.43;0.43;;;;;;;;;;5010991;28;20309;-77
2022/09/08 10:11:33;;;;;;;0.40;0.40;;;;;;;;;;5028248;28;20392;-78
2022/09/08 10:14:17;;;;;;;0.43;0.43;;;;;;;;;;5029709;28;20032;-77
2022/09/08 10:16:51;;;;;;;0.60;0.60;;;;;;;;;;5031120;28;20040;-77
2022/09/08 10:19:35;;;;;;;0.93;0.93;;;;;;;;;;5029427;28;20036;-77
2022/09/08 10:22:19;;;;;;;0.65;0.60;;;;;;;;;;5027189;28;20032;-76
2022/09/08 10:25:03;;;;;;;0.38;0.38;;;;;;;;;;5029328;28;20504;-76
2022/09/08 10:27:47;;;;;;;2.45;2.25;;;;;;;;;;5029243;28;20082;-75
2022/09/08 10:30:21;;;;;;;0.82;0.82;;;;;;;;;;5029037;28;20527;-77
2022/09/08 10:32:47;;;;;;;10.93;1.23;;;;;;;;;;5028925;28;20031;-76
2022/09/08 10:35:34;;;;;;;0.50;0.50;;;;;;;;;;5029041;28;20063;-77
2022/09/08 10:38:02;;;;;;;0.30;0.30;;;;;;;;;;5028132;28;20041;-75
2022/09/08 10:40:34;;;;;;;0.43;0.43;;;;;;;;;;5029162;28;20030;-79
2022/09/08 10:43:18;;;;;;;0.77;0.77;;;;;;;;;;5027715;28;20041;-78
2022/09/08 10:45:58;;;;;;;0.40;0.40;;;;;;;;;;5028826;28;20045;-77
2022/09/08 10:48:40;;;;;;;0.32;0.32;;;;;;;;;;5011300;28;20392;-77
2022/09/08 10:51:31;;;;;;;1.65;0.65;;;;;;;;;;5044091;28;20126;-77
2022/09/08 10:53:59;;;;;;;0.50;0.50;;;;;;;;;;5029257;28;20078;-77
2022/09/08 10:56:28;;;;;;;0.50;0.50;;;;;;;;;;5028043;28;20061;-78
2022/09/08 10:58:54;;;;;;;;;;;;;;;;;;5028377;28;20041;-78
2022/09/08 11:01:38;;;;;;;0.50;0.50;;;;;;;;;;5028546;28;20063;-78
2022/09/08 11:04:22;;;;;;;0.60;0.60;;;;;;;;;;5028778;28;20252;-78
2022/09/08 11:07:04;;;;;;;0.40;0.40;;;;;;;;;;5026946;28;20041;-78
2022/09/08 11:09:51;;;;;;;0.30;0.30;;;;;;;;;;5027302;28;20041;-78
2022/09/08 11:12:25;;;;;;;5.22;4.65;;;;;;;;;;5028698;28;20045;-79
2022/09/08 11:15:09;;;;;;;1.90;1.30;;;;;;;;;;5028538;28;20484;-79
2022/09/08 11:17:47;;;;;;;0.43;0.43;;;;;;;;;;5026781;28;20506;-79
2022/09/08 11:20:22;;;;;;;0.50;0.50;;;;;;;;;;5027993;28;20065;-79
2022/09/08 11:22:52;;;;;;;6.65;0.60;;;;;;;;;;5029136;28;20033;-78
2022/09/08 11:25:17;;;;;;;0.35;0.35;;;;;;;;;;5026960;28;20112;-78
2022/09/08 11:27:43;;;;;;;0.50;0.50;;;;;;;;;;5028142;28;20128;-77
2022/09/08 11:30:22;;;;;;;0.47;0.47;;;;;;;;;;5028015;28;20045;-76
2022/09/08 11:33:06;;;;;;;1.00;0.75;;;;;;;;;;5027212;28;20104;-78
2022/09/08 11:35:47;;;;;;;5.18;1.95;;;;;;;;;;5026202;28;20093;-78
2022/09/08 11:38:21;;;;;;;1.00;0.70;;;;;;;;;;5042296;28;20116;-78
2022/09/08 11:41:15;;;;;;;5.32;1.15;;;;;;;;;;5047937;28;20037;-78
2022/09/08 11:43:55;;;;;;;10.70;1.83;;;;;;;;;;5029067;28;20432;-77
2022/09/08 11:46:20;;;;;;;1.70;0.80;;;;;;;;;;5012999;28;20037;-75
2022/09/08 11:48:55;;;;;;;2.88;1.83;;;;;;;;;;5029862;28;20094;-76
2022/09/08 11:51:43;;;;;;;6.95;6.28;;;;;;;;;;5047388;28;20059;-77
2022/09/08 11:54:20;;;;;;;4.72;1.17;;;;;;;;;;5034480;28;20068;-75
2022/09/08 11:57:05;;;;;;;1.35;0.90;;;;;;;;;;5029173;28;20392;-75
2022/09/08 11:59:49;;;;;;;1.55;1.10;;;;;;;;;;5029622;28;20108;-76
2022/09/08 12:02:34;;;;;;;0.57;0.57;;;;;;;;;;5029888;28;20024;-76
2022/09/08 12:05:05;;;;;;;0.95;0.95;;;;;;;;;;5013464;28;20108;-75
2022/09/08 12:07:50;;;;;;;2.22;1.27;;;;;;;;;;5028816;28;20036;-78
2022/09/08 12:10:24;;;;;;;0.40;0.40;;;;;;;;;;5047190;28;20083;-75
2022/09/08 12:13:09;;;;;;;0.50;0.50;;;;;;;;;;5013431;28;20098;-75
2022/09/08 12:15:51;;;;;;;1.10;0.75;;;;;;;;;;5029060;28;20056;-77
2022/09/08 12:18:19;;;;;;;2.47;1.13;;;;;;;;;;5013126;28;20518;-77
2022/09/08 12:20:54;;;;;;;1.52;1.08;;;;;;;;;;5028634;28;20037;-77
2022/09/08 12:23:19;;;;;;;3.22;1.17;;;;;;;;;;5012373;28;20170;-76
2022/09/08 12:26:03;;;;;;;0.55;0.55;;;;;;;;;;5029096;28;20070;-77
2022/09/08 12:28:35;;;;;;;7.57;1.75;;;;;;;;;;5029123;28;20052;-78
2022/09/08 12:31:00;;;;;;;4.32;1.38;;;;;;;;;;5046776;28;20029;-76
2022/09/08 12:33:40;;;;;;;1.60;1.05;;;;;;;;;;5012237;28;20513;-78
2022/09/08 12:36:28;;;;;;;2.30;1.50;;;;;;;;;;5029124;28;20495;-76
2022/09/08 12:39:04;;;;;;;1.27;1.00;;;;;;;;;;5016384;28;20401;-77
2022/09/08 12:41:29;;;;;;;1.52;1.42;;;;;;;;;;5046769;28;20038;-76
2022/09/08 12:44:04;;;;;;;5.95;2.97;;;;;;;;;;5011119;28;20405;-76
2022/09/08 12:46:44;;;;;;;0.63;0.63;;;;;;;;;;5011554;28;20029;-77
2022/09/08 12:49:18;;;;;;;0.98;0.88;;;;;;;;;;5042004;28;20033;-77
2022/09/08 12:51:44;;;;;;;0.55;0.50;;;;;;;;;;5012070;28;20055;-76
2022/09/08 12:54:21;;;;;;;0.38;0.38;;;;;;;;;;5028824;28;20029;-76
2022/09/08 12:56:54;;;;;;;0.73;0.73;;;;;;;;;;5028529;28;20449;-76
2022/09/08 12:59:36;;;;;;;2.55;1.23;;;;;;;;;;5028913;28;20111;-77
2022/09/08 13:02:05;;;;;;;3.70;0.77;;;;;;;;;;5012767;28;20067;-77
2022/09/08 13:04:30;;;;;;;1.23;0.93;;;;;;;;;;5029033;28;20029;-77
2022/09/08 13:07:03;;;;;;;3.60;3.35;;;;;;;;;;5046627;28;20116;-77
2022/09/08 13:09:32;;;;;;;3.15;1.52;;;;;;;;;;5028354;28;20064;-76
2022/09/08 13:12:00;;;;;;;3.55;2.03;;;;;;;;;;5046839;28;20029;-77
2022/09/08 13:14:33;;;;;;;1.38;0.80;;;;;;;;;;5046507;28;20029;-76
2022/09/08 13:17:14;;;;;;;2.85;1.90;;;;;;;;;;5028829;28;20472;-77
2022/09/08 13:19:52;;;;;;;2.50;1.00;;;;;;;;;;5012090;28;20051;-76
2022/09/08 13:22:37;;;;;;;6.47;1.25;;;;;;;;;;5028987;28;20485;-77
2022/09/08 13:25:25;;;;;;;1.35;0.77;;;;;;;;;;5028669;28;20039;-77
2022/09/08 13:28:10;;;;;;;0.73;0.73;;;;;;;;;;5028943;28;20032;-79
2022/09/08 13:30:38;;;;;;;4.05;1.00;;;;;;;;;;5046190;28;20127;-76
2022/09/08 13:33:20;;;;;;;0.52;0.43;;;;;;;;;;5028005;28;20021;-77
2022/09/08 13:35:47;;;;;;;0.65;0.65;;;;;;;;;;5028476;28;20028;-76
2022/09/08 13:38:14;;;;;;;1.55;0.73;;;;;;;;;;5046426;28;20020;-76
2022/09/08 13:40:59;;;;;;;0.50;0.50;;;;;;;;;;5028605;28;20029;-78
2022/09/08 13:43:38;;;;;;;3.85;1.45;;;;;;;;;;5007745;28;20129;-76
2022/09/08 13:46:04;;;;;;;0.90;0.88;;;;;;;;;;5008912;28;20036;-76
2022/09/08 13:48:55;;;;;;;13.13;2.70;;;;;;;;;;5026417;28;20092;-78
2022/09/08 13:51:24;;;;;;;0.85;0.85;;;;;;;;;;5002166;28;20467;-76
2022/09/08 13:54:08;;;;;;;0.87;0.73;;;;;;;;;;5026587;28;20068;-76
2022/09/08 13:56:33;;;;;;;1.55;0.93;;;;;;;;;;5028139;28;20454;-76
2022/09/08 13:59:16;;;;;;;0.35;0.35;;;;;;;;;;5028401;28;20069;-77
2022/09/08 14:01:44;;;;;;;2.05;0.73;;;;;;;;;;5029546;28;20108;-79
2022/09/08 14:04:13;;;;;;;1.60;1.23;;;;;;;;;;5029120;28;20036;-76
2022/09/08 14:06:57;;;;;;;3.88;1.98;;;;;;;;;;5029701;28;20049;-75
2022/09/08 14:09:24;;;;;;;2.38;1.08;;;;;;;;;;5029278;28;20480;-80
2022/09/08 14:12:08;;;;;;;3.42;1.20;;;;;;;;;;5030148;28;20034;-75
2022/09/08 14:14:36;;;;;;;2.42;1.00;;;;;;;;;;5028607;28;20032;-75
2022/09/08 14:17:22;;;;;;;8.60;1.75;;;;;;;;;;5028321;28;20029;-76
2022/09/08 14:19:54;;;;;;;2.53;1.70;;;;;;;;;;5028182;28;20030;-75
2022/09/08 14:22:28;;;;;;;4.32;1.90;;;;;;;;;;5028446;28;20083;-75
2022/09/08 14:25:01;;;;;;;2.10;1.85;;;;;;;;;;5029549;28;20025;-79
2022/09/08 14:27:35;;;;;;;1.63;1.40;;;;;;;;;;5027431;28;20116;-76
2022/09/08 14:30:12;;;;;;;4.03;2.45;;;;;;;;;;5028068;28;20041;-77
2022/09/08 14:32:41;;;;;;;7.60;1.80;;;;;;;;;;5027440;28;20469;-78
2022/09/08 14:35:26;;;;;;;5.05;1.70;;;;;;;;;;5027867;28;20075;-75
2022/09/08 14:38:02;;;;;;;6.65;5.40;;;;;;;;;;5016956;28;20049;-74
2022/09/08 14:40:43;;;;;;;2.13;1.05;;;;;;;;;;5008003;28;20088;-78
2022/09/08 14:43:20;;;;;;;1.13;0.70;;;;;;;;;;5011811;28;20054;-75
2022/09/08 14:46:04;;;;;;;0.30;0.30;;;;;;;;;;5011354;28;20025;-76
2022/09/08 14:48:35;;;;;;;0.50;0.50;;;;;;;;;;5011071;28;20044;-77
2022/09/08 14:51:01;;;;;;;0.68;0.68;;;;;;;;;;5029179;28;20029;-77
2022/09/08 14:53:46;;;;;;;10.40;2.53;;;;;;;;;;4994632;28;20503;-79
2022/09/08 14:56:35;;;;;;;2.15;1.52;;;;;;;;;;5033538;28;20029;-76
2022/09/08 14:59:04;;;;;;;5.90;1.63;;;;;;;;;;5033092;28;20026;-74
2022/09/08 15:01:39;;;;;;;2.45;1.40;;;;;;;;;;5028477;28;20101;-76
2022/09/08 15:04:25;;;;;;;0.60;0.60;;;;;;;;;;4994838;28;20116;-77
2022/09/08 15:06:53;;;;;;;2.17;0.82;;;;;;;;;;5009944;28;20033;-77
2022/09/08 15:09:19;;;;;;;0.60;0.50;;;;;;;;;;5027790;28;20029;-77
2022/09/08 15:11:47;;;;;;;1.35;1.13;;;;;;;;;;5010891;28;20044;-76
2022/09/08 15:14:29;;;;;;;0.90;0.90;;;;;;;;;;5010724;28;20033;-76
2022/09/08 15:16:55;;;;;;;3.25;1.15;;;;;;;;;;5010744;28;20579;-77